Flight Track Log - Related Links

Times and Time Zones

All times are in EST time to prevent confusion due to time zone crossing. See the DAL1763 flight status page for this flight to view local times or setup timezone preferences in your user account.

Time Position Orientation Groundspeed Altitude Reporting Facility
EST Latitude Longitude Course Direction KTS MPH feet Rate Location/Type
Sat 02:58:28 PM 38.7333 -77.0500 288° West 261 300 4,300  Level Potomac TRACON
Sat 02:59:00 PM 39.0281 -77.4041 328° Northwest  Level Estimated
Sat 02:59:28 PM 38.7667 -77.1333 297° West 257 296 8,100  Level Potomac TRACON
Sat 03:00:00 PM 39.0866 -77.5267 322° Northwest  Level Estimated
Sat 03:00:28 PM 38.8333 -77.1833 330° Northwest 265 305 11,000  Level Potomac TRACON
Sat 03:01:00 PM 39.1450 -77.6494 290° West  Level Estimated
Sat 03:02:00 PM 39.2032 -77.7724 303° West  Level Estimated
Sat 03:02:30 PM 38.9719 -77.3164 323° Northwest 339 390 14,400  Level Washington Center
Sat 03:03:00 PM 39.2613 -77.8955 288° West  Level Estimated
Sat 03:03:31 PM 39.0583 -77.3933 325° Northwest 362 417 16,800  Level Washington Center
Sat 03:04:31 PM 39.1406 -77.4731 323° Northwest 374 430 17,800 1,475 Climbing Washington Center
Sat 03:05:29 PM 39.2267 -77.5583 323° Northwest 379 436 19,700 1,916 Climbing Washington Center
Sat 03:06:30 PM 39.3169 -77.6464 323° Northwest 389 448 21,600 1,820 Climbing Washington Center
Sat 03:07:31 PM 39.4069 -77.7350 323° Northwest 399 459 23,400 1,210 Climbing Washington Center
Sat 03:08:29 PM 39.5014 -77.8239 324° Northwest 405 466 24,000 303 Climbing Washington Center
Sat 03:09:30 PM 39.5617 -77.9442 303° West 403 464 24,000  Level Washington Center
Sat 03:11:44 PM 39.6517 -78.2483 291° West 411 473 24,000  Level Cleveland Center
Sat 03:12:46 PM 39.7006 -78.4172 291° West 416 479 24,000  Level Cleveland Center
Sat 03:13:48 PM 39.7417 -78.5553 291° West 414 476 24,000  Level Cleveland Center
Sat 03:14:50 PM 39.7842 -78.6933 292° West 413 475 24,000  Level Cleveland Center
Sat 03:15:52 PM 39.8256 -78.8375 291° West 422 486 24,000  Level Cleveland Center
Sat 03:16:54 PM 39.8942 -78.9819 302° West 422 486 24,000  Level Cleveland Center
Sat 03:17:56 PM 39.9575 -79.1108 303° West 422 486 24,000  Level Cleveland Center
Sat 03:18:58 PM 40.0197 -79.2406 302° West 424 488 24,000  Level Cleveland Center
Sat 03:20:00 PM 40.0836 -79.3731 302° West 430 495 24,000  Level Cleveland Center
Sat 03:21:02 PM 40.1461 -79.5033 302° West 426 490 24,000  Level Cleveland Center
Sat 03:22:04 PM 40.2081 -79.6344 302° West 427 491 24,000  Level Cleveland Center
Sat 03:23:06 PM 40.2828 -79.7928 302° West 427 491 24,000  Level Cleveland Center
Sat 03:24:08 PM 40.3442 -79.9239 302° West 427 491 24,000  Level Cleveland Center
Sat 03:25:10 PM 40.4094 -80.0628 302° West 418 481 24,000  Level Cleveland Center
Sat 03:26:12 PM 40.4703 -80.1931 302° West 421 484 24,000  Level Cleveland Center
Sat 03:27:14 PM 40.5325 -80.3228 302° West 421 484 24,000  Level Cleveland Center
Sat 03:28:16 PM 40.5950 -80.4597 301° West 420 483 24,000  Level Cleveland Center
Sat 03:29:18 PM 40.6542 -80.5856 302° West 419 482 24,000  Level Cleveland Center
Sat 03:30:20 PM 40.7153 -80.7208 301° West 419 482 24,000  Level Cleveland Center
Sat 03:31:22 PM 40.7758 -80.8525 301° West 422 486 24,000  Level Cleveland Center
Sat 03:32:24 PM 40.8472 -81.0092 301° West 417 480 24,000  Level Cleveland Center
Sat 03:33:26 PM 40.9069 -81.1397 301° West 420 483 24,000  Level Cleveland Center
Sat 03:34:28 PM 40.9661 -81.2744 300° West 420 483 24,000  Level Cleveland Center
Sat 03:35:30 PM 41.0264 -81.4086 301° West 419 482 24,000  Level Cleveland Center
Sat 03:36:32 PM 41.0858 -81.5453 300° West 423 487 24,000  Level Cleveland Center
Sat 03:37:34 PM 41.1444 -81.6750 301° West 422 486 24,000  Level Cleveland Center
Sat 03:38:36 PM 41.2153 -81.8342 301° West 419 482 24,000  Level Cleveland Center
Sat 03:39:38 PM 41.2736 -81.9681 300° West 420 483 24,000  Level Cleveland Center
Sat 03:40:40 PM 41.3364 -82.1114 300° West 420 483 24,000  Level Cleveland Center
Sat 03:41:42 PM 41.3886 -82.2561 296° West 418 481 24,000  Level Cleveland Center
Sat 03:42:44 PM 41.4347 -82.3997 293° West 418 481 24,000  Level Cleveland Center
Sat 03:43:46 PM 41.4800 -82.5433 293° West 416 479 24,000  Level Cleveland Center
Sat 03:44:48 PM 41.5258 -82.6872 293° West 418 481 24,000  Level Cleveland Center
Sat 03:45:50 PM 41.5711 -82.8328 293° West 419 482 24,000  Level Cleveland Center
Sat 03:46:52 PM 41.6172 -82.9778 293° West 420 483 24,000  Level Cleveland Center
Sat 03:47:54 PM 41.6667 -83.1375 293° West 419 482 24,000  Level Cleveland Center
Sat 03:48:56 PM 41.7125 -83.2814 293° West 420 483 24,000  Level Cleveland Center
Sat 03:49:58 PM 41.7567 -83.4264 292° West 419 482 24,000  Level Cleveland Center
Sat 03:51:00 PM 41.8011 -83.5722 292° West 420 483 24,000  Level Cleveland Center
Sat 03:52:02 PM 41.8450 -83.7181 292° West 420 483 24,000  Level Cleveland Center
Sat 03:53:04 PM 41.8903 -83.8650 293° West 423 487 24,000  Level Cleveland Center
Sat 03:54:06 PM 41.9425 -84.0403 292° West 421 484 24,000  Level Cleveland Center
Sat 03:55:08 PM 41.9864 -84.1867 292° West 421 484 24,000  Level Cleveland Center
Sat 03:56:10 PM 42.0275 -84.3244 292° West 422 486 24,000  Level Cleveland Center
Sat 03:57:16 PM 42.0719 -84.4775 291° West 425 489 24,000  Level Chicago Center
Sat 03:58:18 PM 42.1247 -84.6536 292° West 424 488 24,000  Level Chicago Center
Sat 03:59:20 PM 42.1681 -84.8019 292° West 427 491 24,000  Level Chicago Center
Sat 04:00:22 PM 42.2114 -84.9489 292° West 425 489 24,000  Level Chicago Center
Sat 04:01:24 PM 42.2550 -85.0981 292° West 428 493 24,000  Level Chicago Center
Sat 04:02:26 PM 42.2997 -85.2497 292° West 429 494 24,000  Level Chicago Center
Sat 04:03:27 PM 42.3717 -85.3778 307° West 440 506 24,000  Level Chicago Center
Sat 04:04:29 PM 42.4431 -85.5092 306° West 435 501 24,000  Level Chicago Center
Sat 04:05:31 PM 42.5300 -85.6667 307° West 435 501 24,000  Level Chicago Center
Sat 04:06:33 PM 42.5736 -85.8158 292° West 429 494 24,000  Level Chicago Center
Sat 04:07:35 PM 42.6094 -85.9700 288° West 426 490 24,000  Level Chicago Center
Sat 04:08:37 PM 42.6444 -86.1244 287° West 425 489 24,000  Level Chicago Center
Sat 04:09:38 PM 42.6936 -86.2703 295° West 424 488 24,000  Level Chicago Center
Sat 04:10:40 PM 42.7506 -86.4114 299° West 421 484 24,000  Level Chicago Center
Sat 04:11:42 PM 42.8072 -86.5550 298° West 426 490 24,000  Level Chicago Center
Sat 04:12:44 PM 42.8639 -86.6972 299° West 424 488 24,000  Level Chicago Center
Sat 04:13:46 PM 42.9308 -86.8681 298° West 425 489 24,000  Level Chicago Center
Sat 04:14:48 PM 42.9864 -87.0108 298° West 425 489 24,000  Level Chicago Center
Sat 04:15:50 PM 43.0419 -87.1539 298° West 426 490 24,000  Level Chicago Center
Sat 04:16:52 PM 43.0975 -87.2975 298° West 425 489 24,000  Level Chicago Center
Sat 04:17:53 PM 43.1589 -87.4578 298° West 423 487 24,000  Level Chicago Center
Sat 04:18:55 PM 43.2133 -87.6008 298° West 424 488 24,000  Level Chicago Center
Sat 04:19:57 PM 43.2683 -87.7444 298° West 424 488 24,000  Level Chicago Center
Sat 04:20:59 PM 43.3228 -87.8892 297° West 427 491 24,000  Level Chicago Center
Sat 04:22:01 PM 43.3761 -88.0308 297° West 418 481 24,000  Level Chicago Center
Sat 04:23:03 PM 43.4297 -88.1747 297° West 423 487 24,000  Level Chicago Center
Sat 04:24:05 PM 43.4936 -88.3461 297° West 425 489 24,000  Level Chicago Center
Sat 04:25:07 PM 43.5458 -88.4872 297° West 432 497 24,000  Level Chicago Center
Sat 04:26:09 PM 43.5997 -88.6311 297° West 432 497 24,000  Level Chicago Center
Sat 04:27:11 PM 43.6619 -88.8039 297° West 425 489 24,000  Level Chicago Center
Sat 04:28:13 PM 43.7144 -88.9475 297° West 421 484 24,000  Level Chicago Center
Sat 04:29:15 PM 43.7661 -89.0914 296° West 420 483 24,000  Level Chicago Center
Sat 04:30:17 PM 43.8172 -89.2353 296° West 418 481 24,000  Level Chicago Center
Sat 04:31:19 PM 43.8708 -89.3792 297° West 420 483 24,000  Level Chicago Center
Sat 04:32:20 PM 43.9231 -89.5228 297° West 420 483 24,000  Level Chicago Center
Sat 04:33:22 PM 43.9922 -89.6878 300° West 414 476 24,000  Level Chicago Center
Sat 04:34:24 PM 44.0508 -89.8278 300° West 419 482 24,000  Level Chicago Center
Sat 04:35:26 PM 44.1092 -89.9647 301° West 415 478 24,000  Level Chicago Center
Sat 04:36:28 PM 44.1689 -90.1036 301° West 418 481 24,000  Level Chicago Center
Sat 04:37:30 PM 44.2253 -90.2425 300° West 413 475 24,000  Level Chicago Center
Sat 04:38:32 PM 44.2894 -90.3956 300° West 413 475 24,000  Level Chicago Center
Sat 04:39:42 PM 44.3511 -90.5464 300° West 413 475 24,000  Level Minneapolis Center
Sat 04:40:43 PM 44.4100 -90.6839 301° West 413 475 24,000  Level Minneapolis Center
Sat 04:41:45 PM 44.4667 -90.8242 300° West 414 476 24,000  Level Minneapolis Center
Sat 04:42:47 PM 44.5267 -90.9767 299° West 415 478 24,000  Level Minneapolis Center
Sat 04:43:48 PM 44.5819 -91.1167 299° West 413 475 24,000 -49 Level Minneapolis Center
Sat 04:44:50 PM 44.6389 -91.2547 300° West 412 474 23,900 -585 Descending Minneapolis Center
Sat 04:45:51 PM 44.7069 -91.4167 301° West 406 467 22,800 -1,024 Descending Minneapolis Center
Sat 04:46:53 PM 44.7572 -91.5442 299° West 383 441 21,800 -968 Descending Minneapolis Center
Sat 04:47:55 PM 44.8078 -91.6708 299° West 376 433 20,800 -976 Descending Minneapolis Center
Sat 04:48:56 PM 44.8572 -91.7961 299° West 371 427 19,800 -1,561 Descending Minneapolis Center
Sat 04:49:58 PM 44.9047 -91.9175 299° West 361 415 17,600 -2,226 Descending Minneapolis Center
Sat 04:51:00 PM 44.9511 -92.0358 299° West 349 402 15,200 -2,341 Descending Minneapolis Center
Sat 04:52:01 PM 44.9961 -92.1503 299° West 338 389 12,800 -2,049 Descending Minneapolis Center
Sat 04:53:03 PM 45.0467 -92.2842 298° West 324 373 11,000 -1,016 Descending Minneapolis Center
Sat 04:54:05 PM 45.0292 -92.4014 258° West 301 346 10,700 -683 Descending Minneapolis Center
Sat 04:55:06 PM 44.9875 -92.4869 235° Southwest 265 305 9,600 -1,366 Descending Minneapolis Center
Sat 04:56:08 PM 44.9486 -92.5683 236° Southwest 252 290 7,900 -1,258 Descending Minneapolis Center
Sat 04:57:10 PM 44.9094 -92.6472 235° Southwest 246 283 7,000 -439 Descending Minneapolis Center
Sat 04:58:11 PM 44.8711 -92.7261 236° Southwest 244 281 7,000 -488 Level Minneapolis Center
Sat 04:59:13 PM 44.8325 -92.8058 236° Southwest 246 283 6,000 -1,008 Descending Minneapolis Center
Sat 05:00:16 PM 44.8119 -92.8967 252° West 209 241 4,900 -864 Descending Minneapolis Center
Sat 05:01:18 PM 44.8169 -92.9733 275° West 196 226 4,200 -726 Descending Minneapolis Center
Sat 05:02:20 PM 44.8222 -93.0356 277° West 167 192 3,400 -780 Descending Minneapolis Center
Sat 05:03:21 PM 44.8383 -93.0928 292° West 165 190 2,600 -829 Descending Minneapolis Center
Sat 05:04:23 PM 44.8594 -93.1431 301° West 152 175 1,700 -871 Descending Minneapolis Center

Login

Don't have an account? Register now (free) for customized features, flight alerts, and more!